Main page
METAR-TAF:

METAR-TAF

Airports :

Rotterdam The Hague Airport

Rotterdam, Netherlands

latitude: 51-57N, longitude: 004-27E, elevation: -5 m

Current weather observation

The report was made 37 minutes ago, at 09:55 UTC
Wind 8 kt from the South
Temperature 8°C
Humidity 81%
Pressure 1021 hPa
Visibility 10 km or more

METAR: EHRD 200955Z AUTO 19008KT 9999 NSC 08/05 Q1021 NOSIG

Time: 11:32 (10:32 UTC)

Forecast

The report was made 5 hours and 35 minutes ago, at 04:57 UTC
Forecast valid from 20 at 06 UTC to 21 at 12 UTC
Wind 9 kt from the Southwest
Visibility 10 km or more
no clouds below 1500 m and no cumulonimbus
Probability 30% :
Temporary
from 21 at 04 UTC to 21 at 08 UTC
Visibility: 6000 m

TAF: EHRD 200457Z 2006/2112 22009KT CAVOK PROB30 TEMPO 2104/2108 6000

Weather observations and forecasts of more than 4000 airports (METAR and TAF reports).

The available stations are represented by yellow and red dots on the map.

Hover mouse over dot to see the name of the station.

Then click to see weather observations and forecasts.

To change the map : click on the green buttons with a black cross to zoom in, on the green button with a dash to zoom out, or on the green arrows for adjacent maps.


METAR-TAF: